Time;durP1;ratioP1;P1;durP2;ratioP2;P2;SDS_P1;SDS_P2;PMS_P1;PMS_P2;Temp;Humidity;BMP_temperature;BMP_pressure;BME280_temperature;BME280_humidity;BME280_pressure;Samples;Min_cycle;Max_cycle;Signal;HPM_P1;HPM_P2
2022/10/26 00:01:30;;;;;;;6.13;4.07;;;;;;;13.91;100.00;96745.28;5084162;28;20603;-60
2022/10/26 00:03:57;;;;;;;4.43;3.80;;;;;;;13.89;100.00;96739.28;5084594;28;20281;-60
2022/10/26 00:06:25;;;;;;;5.97;4.00;;;;;;;13.92;100.00;96735.50;5086060;28;20234;-60
2022/10/26 00:08:53;;;;;;;5.57;4.40;;;;;;;13.90;100.00;96719.69;5089799;28;20206;-60
2022/10/26 00:11:20;;;;;;;5.43;4.10;;;;;;;13.89;100.00;96712.72;5089354;28;20205;-60
2022/10/26 00:13:48;;;;;;;4.90;4.40;;;;;;;13.89;100.00;96698.56;5085425;28;20221;-61
2022/10/26 00:16:17;;;;;;;9.00;5.13;;;;;;;13.89;100.00;96699.41;5084153;28;20248;-61
2022/10/26 00:18:44;;;;;;;4.60;4.10;;;;;;;13.84;100.00;96691.09;5084280;28;20206;-60
2022/10/26 00:21:11;;;;;;;7.13;4.97;;;;;;;13.84;100.00;96690.28;5083977;28;20237;-59
2022/10/26 00:23:38;;;;;;;8.27;4.90;;;;;;;13.83;100.00;96684.13;5084543;28;20244;-61
2022/10/26 00:26:05;;;;;;;5.97;4.93;;;;;;;13.83;100.00;96672.66;5083655;28;20281;-60
2022/10/26 00:28:32;;;;;;;6.40;4.70;;;;;;;13.83;100.00;96673.50;5083928;28;20308;-59
2022/10/26 00:31:02;;;;;;;5.20;4.40;;;;;;;13.86;100.00;96667.00;5083447;28;20708;-61
2022/10/26 00:33:29;;;;;;;5.20;4.70;;;;;;;13.83;100.00;96668.16;5084264;28;20217;-61
2022/10/26 00:35:56;;;;;;;7.73;5.37;;;;;;;13.84;100.00;96667.19;5083775;28;20233;-60
2022/10/26 00:38:23;;;;;;;5.20;4.80;;;;;;;13.83;100.00;96662.84;5082394;28;20604;-61
2022/10/26 00:40:50;;;;;;;7.93;5.40;;;;;;;13.79;100.00;96666.81;5083959;28;20261;-60
2022/10/26 00:43:35;;;;;;;7.17;5.10;;;;;;;13.74;100.00;96669.16;5083441;28;20208;-60
2022/10/26 00:46:07;;;;;;;8.03;4.90;;;;;;;13.68;100.00;96664.47;5083316;28;20289;-60
2022/10/26 00:48:37;;;;;;;6.80;4.90;;;;;;;13.58;100.00;96662.94;5083659;28;20183;-60
2022/10/26 00:51:07;;;;;;;9.73;5.20;;;;;;;13.52;100.00;96659.13;5082998;28;20222;-61
2022/10/26 00:53:33;;;;;;;7.27;4.87;;;;;;;13.48;100.00;96647.13;5083758;28;20289;-60
2022/10/26 00:56:01;;;;;;;8.30;4.63;;;;;;;13.41;100.00;96646.13;5083290;28;20678;-61
2022/10/26 00:58:28;;;;;;;9.87;4.53;;;;;;;13.34;100.00;96655.72;5083697;28;20193;-60
2022/10/26 01:00:55;;;;;;;5.83;4.53;;;;;;;13.28;100.00;96657.19;5083462;28;20294;-60
2022/10/26 01:03:24;;;;;;;6.90;4.20;;;;;;;13.19;100.00;96658.13;5083311;28;20605;-60
2022/10/26 01:05:54;;;;;;;5.33;4.37;;;;;;;13.11;100.00;96658.09;5083134;28;20194;-60
2022/10/26 01:08:21;;;;;;;4.37;3.90;;;;;;;13.13;100.00;96673.88;5083353;28;20202;-59
2022/10/26 01:10:47;;;;;;;5.33;3.80;;;;;;;13.03;100.00;96683.75;5083478;28;20194;-61
2022/10/26 01:13:16;;;;;;;7.60;3.80;;;;;;;12.92;100.00;96687.50;5083735;28;20210;-61
2022/10/26 01:15:49;;;;;;;7.20;3.80;;;;;;;12.87;100.00;96689.78;5083214;28;20225;-60
2022/10/26 01:18:21;;;;;;;4.60;3.50;;;;;;;12.86;100.00;96688.09;5083288;28;20523;-61
2022/10/26 01:21:12;;;;;;;8.80;3.07;;;;;;;12.90;100.00;96681.50;5083937;28;20234;-59
2022/10/26 01:23:52;;;;;;;4.93;3.90;;;;;;;12.94;100.00;96681.03;5084035;28;20282;-60
2022/10/26 01:26:33;;;;;;;8.03;3.93;;;;;;;12.91;100.00;96686.66;5083135;28;20225;-60
2022/10/26 01:29:44;;;;;;;7.47;4.23;;;;;;;12.85;100.00;96681.97;5083695;28;20194;-60
2022/10/26 01:32:14;;;;;;;5.27;3.70;;;;;;;12.85;100.00;96679.31;5006030;28;20297;-61
2022/10/26 01:34:45;;;;;;;6.00;3.53;;;;;;;12.88;100.00;96692.28;5083180;28;20197;-60
2022/10/26 01:37:15;;;;;;;4.63;3.40;;;;;;;12.88;100.00;96716.16;5083517;28;20265;-60
2022/10/26 01:39:45;;;;;;;5.10;4.47;;;;;;;13.07;100.00;96809.88;5084379;28;20199;-60
2022/10/26 01:42:12;;;;;;;7.97;6.03;;;;;;;13.15;100.00;96852.44;5086211;28;20311;-61
2022/10/26 01:44:41;;;;;;;8.20;5.43;;;;;;;13.31;100.00;96869.34;5085744;28;20327;-60
2022/10/26 01:47:09;;;;;;;6.67;5.90;;;;;;;13.37;100.00;96833.34;5086417;28;20209;-60
2022/10/26 01:49:40;;;;;;;7.50;6.80;;;;;;;13.36;100.00;96813.09;5087739;28;20580;-59
2022/10/26 01:52:09;;;;;;;9.07;8.10;;;;;;;13.49;100.00;96839.25;5086473;28;20261;-60
2022/10/26 01:54:36;;;;;;;9.57;8.77;;;;;;;13.55;100.00;96843.94;5083008;28;20284;-60
2022/10/26 01:57:05;;;;;;;10.27;9.17;;;;;;;13.55;100.00;96833.31;5082889;28;20226;-61
2022/10/26 01:59:47;;;;;;;10.10;9.07;;;;;;;13.45;100.00;96828.94;5082661;28;20224;-60
2022/10/26 02:02:32;;;;;;;9.33;8.17;;;;;;;13.42;100.00;96807.16;5084636;28;20205;-60
2022/10/26 02:05:14;;;;;;;9.00;8.20;;;;;;;13.40;100.00;96802.00;5086543;28;20274;-61
2022/10/26 02:07:47;;;;;;;9.80;8.80;;;;;;;13.37;100.00;96781.06;5087615;28;20209;-60
2022/10/26 02:10:22;;;;;;;10.43;9.37;;;;;;;13.36;100.00;96775.91;5089448;28;20218;-60
2022/10/26 02:12:55;;;;;;;10.00;9.00;;;;;;;13.36;100.00;96771.44;5090837;28;20213;-59
2022/10/26 02:15:23;;;;;;;10.20;9.20;;;;;;;13.35;100.00;96767.13;5091750;28;20293;-61
2022/10/26 02:17:52;;;;;;;10.03;9.13;;;;;;;13.36;100.00;96786.53;5091011;28;20297;-59
2022/10/26 02:20:22;;;;;;;9.43;8.63;;;;;;;13.38;100.00;96800.50;5085741;28;20194;-62
2022/10/26 02:22:50;;;;;;;9.83;8.83;;;;;;;13.42;100.00;96785.91;5081618;28;20202;-61
2022/10/26 02:25:20;;;;;;;9.63;8.63;;;;;;;13.43;100.00;96820.28;5082074;28;20286;-59
2022/10/26 02:27:49;;;;;;;11.23;8.97;;;;;;;13.43;100.00;96840.69;5082087;28;20277;-61
2022/10/26 02:30:16;;;;;;;11.73;9.30;;;;;;;13.43;100.00;96846.00;5082071;28;20255;-59
2022/10/26 02:32:45;;;;;;;10.47;9.53;;;;;;;13.42;100.00;96860.31;5081876;28;20281;-61
2022/10/26 02:35:12;;;;;;;9.87;8.90;;;;;;;13.44;100.00;96863.63;5082049;28;20213;-60
2022/10/26 02:37:41;;;;;;;9.50;8.57;;;;;;;13.44;100.00;96866.28;5091132;28;20197;-61
2022/10/26 02:40:11;;;;;;;12.70;8.73;;;;;;;13.46;100.00;96861.66;5104123;28;20225;-60
2022/10/26 02:42:39;;;;;;;10.23;8.60;;;;;;;13.47;100.00;96868.63;5075480;28;20285;-61
2022/10/26 02:45:09;;;;;;;9.83;8.87;;;;;;;13.47;100.00;96879.25;5088563;28;20208;-61
2022/10/26 02:47:36;;;;;;;10.20;8.97;;;;;;;13.46;100.00;96881.06;5103330;28;20190;-60
2022/10/26 02:50:02;;;;;;;10.00;8.97;;;;;;;13.47;100.00;96889.88;5104178;28;20198;-60
2022/10/26 02:52:36;;;;;;;10.17;9.27;;;;;;;13.46;100.00;96890.88;5084934;28;20599;-61
2022/10/26 02:55:08;;;;;;;10.00;9.20;;;;;;;13.43;100.00;96894.66;5081385;28;20700;-60
2022/10/26 02:57:38;;;;;;;10.40;9.27;;;;;;;13.47;100.00;96887.22;5081688;28;20323;-59
2022/10/26 03:00:06;;;;;;;9.87;8.97;;;;;;;13.48;100.00;96890.72;5081694;28;20288;-59
2022/10/26 03:02:33;;;;;;;9.50;8.60;;;;;;;13.48;100.00;96886.25;5080858;28;20284;-61
2022/10/26 03:05:07;;;;;;;9.47;8.57;;;;;;;13.51;100.00;96887.75;5080700;28;20236;-61
2022/10/26 03:07:34;;;;;;;9.30;8.50;;;;;;;13.53;100.00;96897.25;5081275;28;20284;-61
2022/10/26 03:10:01;;;;;;;8.13;6.80;;;;;;;13.57;100.00;96884.50;5081490;28;20312;-60
2022/10/26 03:12:30;;;;;;;9.00;8.20;;;;;;;13.56;100.00;96881.00;5081596;28;20222;-60
2022/10/26 03:14:57;;;;;;;8.33;7.50;;;;;;;13.64;100.00;96877.56;5063418;28;20230;-61
2022/10/26 03:17:24;;;;;;;9.57;8.07;;;;;;;13.64;100.00;96878.38;5080846;28;20304;-60
2022/10/26 03:19:50;;;;;;;10.57;8.37;;;;;;;13.65;100.00;96896.00;5080289;28;20710;-60
2022/10/26 03:22:17;;;;;;;9.03;8.13;;;;;;;13.64;100.00;96896.97;5080814;28;21338;-60
2022/10/26 03:24:43;;;;;;;8.83;8.03;;;;;;;13.64;100.00;96888.19;5080733;28;20718;-60
2022/10/26 03:27:10;;;;;;;9.97;8.20;;;;;;;13.64;100.00;96889.00;5080728;28;20201;-59
2022/10/26 03:29:38;;;;;;;8.47;7.73;;;;;;;13.63;100.00;96890.00;5081280;28;20297;-59
2022/10/26 03:32:05;;;;;;;9.07;8.20;;;;;;;13.63;100.00;96871.41;5080996;28;20714;-60
2022/10/26 03:34:32;;;;;;;8.07;7.40;;;;;;;13.64;100.00;96857.09;5080758;28;20619;-60
2022/10/26 03:36:59;;;;;;;9.43;8.37;;;;;;;13.68;100.00;96815.09;5081153;28;20242;-60
2022/10/26 03:39:25;;;;;;;8.30;7.57;;;;;;;13.68;100.00;96815.94;5080915;28;20287;-59
2022/10/26 03:41:52;;;;;;;8.67;7.67;;;;;;;13.69;100.00;96836.22;5080866;28;20666;-60
2022/10/26 03:44:18;;;;;;;8.57;7.83;;;;;;;13.74;100.00;96825.13;5080563;28;20285;-60
2022/10/26 03:46:46;;;;;;;7.50;6.70;;;;;;;13.74;100.00;96833.94;5081073;28;20198;-60
2022/10/26 03:49:13;;;;;;;8.07;7.37;;;;;;;13.71;100.00;96850.19;5085560;28;20278;-60
2022/10/26 03:51:40;;;;;;;7.73;7.00;;;;;;;13.71;100.00;96839.53;5091271;28;20716;-59
2022/10/26 03:54:06;;;;;;;9.13;7.10;;;;;;;13.70;100.00;96835.25;5087929;28;20218;-60
2022/10/26 03:56:33;;;;;;;8.50;7.43;;;;;;;13.68;100.00;96833.72;5086145;28;20314;-59
2022/10/26 03:59:01;;;;;;;9.83;6.40;;;;;;;13.69;100.00;96830.91;5080613;28;20265;-59
2022/10/26 04:01:28;;;;;;;7.53;6.83;;;;;;;13.69;100.00;96838.03;5080594;28;20207;-60
2022/10/26 04:03:56;;;;;;;7.77;6.97;;;;;;;13.69;100.00;96835.38;5080320;28;20204;-60
2022/10/26 04:06:23;;;;;;;6.80;6.20;;;;;;;13.73;100.00;96837.59;5080333;28;20714;-60
2022/10/26 04:08:50;;;;;;;6.97;6.37;;;;;;;13.75;100.00;96848.88;5081320;28;20609;-60
2022/10/26 04:11:17;;;;;;;6.90;6.20;;;;;;;13.77;100.00;96846.91;5081142;28;20213;-60
2022/10/26 04:13:43;;;;;;;7.10;6.33;;;;;;;13.76;100.00;96845.22;5084002;28;20237;-60
2022/10/26 04:16:10;;;;;;;6.43;5.93;;;;;;;13.76;100.00;96853.22;5084463;28;20308;-60
2022/10/26 04:18:37;;;;;;;5.73;5.10;;;;;;;13.74;100.00;96849.88;5083736;28;20229;-60
2022/10/26 04:21:05;;;;;;;7.93;5.43;;;;;;;13.75;100.00;96846.22;5085045;28;20285;-60
2022/10/26 04:23:32;;;;;;;7.17;4.53;;;;;;;13.75;100.00;96848.03;5084091;28;20884;-60
2022/10/26 04:25:59;;;;;;;9.73;8.67;;;;;;;13.70;100.00;96847.69;5084513;28;20701;-60
2022/10/26 04:28:25;;;;;;;5.87;5.20;;;;;;;13.70;100.00;96867.13;5085888;28;20195;-59
2022/10/26 04:30:52;;;;;;;8.03;4.10;;;;;;;13.67;100.00;96872.78;5095967;28;20229;-60
2022/10/26 04:33:18;;;;;;;6.80;3.63;;;;;;;13.65;100.00;96888.03;5101408;28;20212;-60
2022/10/26 04:35:46;;;;;;;3.47;3.17;;;;;;;13.64;100.00;96896.97;5084596;28;20293;-60
2022/10/26 04:38:14;;;;;;;4.23;3.50;;;;;;;13.66;100.00;96904.81;5084526;28;20218;-60
2022/10/26 04:40:41;;;;;;;3.97;3.53;;;;;;;13.66;100.00;96907.47;5083654;28;20315;-60
2022/10/26 04:43:08;;;;;;;4.33;3.03;;;;;;;13.69;100.00;96921.28;5083833;28;21553;-60
2022/10/26 04:45:34;;;;;;;6.43;3.40;;;;;;;13.66;100.00;96926.91;5084574;28;20597;-60
2022/10/26 04:48:03;;;;;;;5.80;3.37;;;;;;;13.76;100.00;96937.44;5083535;28;20691;-60
2022/10/26 04:50:30;;;;;;;6.10;3.30;;;;;;;13.66;100.00;96926.06;5083839;28;20324;-60
2022/10/26 04:52:56;;;;;;;4.93;3.13;;;;;;;13.64;100.00;96918.22;5086422;28;20646;-60
2022/10/26 04:55:24;;;;;;;4.20;3.53;;;;;;;13.61;100.00;96902.59;5097306;28;20259;-60
2022/10/26 04:57:51;;;;;;;4.43;3.80;;;;;;;13.61;100.00;96907.91;5096258;28;20220;-60
2022/10/26 05:00:18;;;;;;;5.70;3.70;;;;;;;13.61;100.00;96891.13;5096655;28;20267;-61
2022/10/26 05:02:45;;;;;;;6.90;4.20;;;;;;;13.60;100.00;96868.22;5096610;28;20233;-60
2022/10/26 05:05:11;;;;;;;4.30;3.70;;;;;;;13.62;100.00;96845.81;5084104;28;20277;-59
2022/10/26 05:07:38;;;;;;;3.87;3.57;;;;;;;13.63;100.00;96828.88;5083473;28;20202;-61
2022/10/26 05:10:05;;;;;;;5.80;3.60;;;;;;;13.66;100.00;96814.44;5083087;28;20315;-60
2022/10/26 05:12:33;;;;;;;4.40;3.80;;;;;;;13.67;100.00;96811.66;5083149;28;20280;-60
2022/10/26 05:15:00;;;;;;;4.33;3.70;;;;;;;13.69;100.00;96808.81;5083612;28;20591;-60
2022/10/26 05:17:27;;;;;;;6.20;4.23;;;;;;;13.69;100.00;96819.44;5083391;28;20313;-59
2022/10/26 05:19:56;;;;;;;5.83;3.90;;;;;;;13.68;100.00;96800.00;5082882;28;20222;-59
2022/10/26 05:22:23;;;;;;;4.70;4.20;;;;;;;13.65;100.00;96797.66;5083150;28;20201;-60
2022/10/26 05:24:50;;;;;;;4.93;3.93;;;;;;;13.65;100.00;96821.59;5082002;28;20308;-59
2022/10/26 05:27:16;;;;;;;4.70;4.30;;;;;;;13.68;100.00;96823.91;5082815;28;20226;-60
2022/10/26 05:29:44;;;;;;;9.17;4.27;;;;;;;13.66;100.00;96830.38;5082853;28;20249;-60
2022/10/26 05:32:11;;;;;;;4.50;3.83;;;;;;;13.64;100.00;96832.38;5089514;28;20244;-60
2022/10/26 05:34:38;;;;;;;5.43;4.17;;;;;;;13.62;100.00;96842.31;5090244;28;20290;-60
2022/10/26 05:37:04;;;;;;;5.43;4.50;;;;;;;13.62;100.00;96832.53;5089272;28;20258;-60
2022/10/26 05:39:31;;;;;;;5.93;4.80;;;;;;;13.62;100.00;96839.66;5082863;28;20202;-60
2022/10/26 05:41:58;;;;;;;5.73;4.70;;;;;;;13.58;100.00;96843.63;5082827;28;20298;-60
2022/10/26 05:44:24;;;;;;;9.70;4.87;;;;;;;13.56;100.00;96845.63;5082159;28;20194;-60
2022/10/26 05:46:52;;;;;;;5.07;4.67;;;;;;;13.55;100.00;96852.75;5082408;28;20633;-59
2022/10/26 05:49:19;;;;;;;5.50;4.60;;;;;;;13.54;100.00;96848.41;5082654;28;20289;-59
2022/10/26 05:51:45;;;;;;;5.23;4.57;;;;;;;13.55;100.00;96849.25;5081914;28;20230;-60
2022/10/26 05:54:12;;;;;;;5.03;4.37;;;;;;;13.56;100.00;96858.91;5082177;28;20240;-61
2022/10/26 05:56:40;;;;;;;4.43;4.07;;;;;;;13.56;100.00;96872.19;5081719;28;20310;-59
2022/10/26 05:59:11;;;;;;;4.93;4.20;;;;;;;13.56;100.00;96886.31;5082387;28;20281;-60
2022/10/26 06:01:50;;;;;;;6.50;4.33;;;;;;;13.58;100.00;96896.75;5082180;28;20307;-59
2022/10/26 06:04:28;;;;;;;6.57;4.23;;;;;;;13.59;100.00;96904.59;5082193;28;20691;-59
2022/10/26 06:06:56;;;;;;;7.20;4.50;;;;;;;13.59;100.00;96909.06;5082579;28;20217;-60
2022/10/26 06:09:23;;;;;;;9.53;5.10;;;;;;;13.62;100.00;96908.75;5081895;28;20226;-60
2022/10/26 06:11:51;;;;;;;7.03;4.60;;;;;;;13.62;100.00;96901.63;5082351;28;20285;-60
2022/10/26 06:14:18;;;;;;;7.37;4.33;;;;;;;13.62;100.00;96898.97;5082622;28;20285;-60
2022/10/26 06:16:56;;;;;;;5.13;4.40;;;;;;;13.64;100.00;96881.03;5082298;28;20356;-60
2022/10/26 06:19:35;;;;;;;5.40;3.93;;;;;;;13.67;100.00;96870.09;5082683;28;20194;-60
2022/10/26 06:22:12;;;;;;;5.63;4.00;;;;;;;13.69;100.00;96873.44;5082464;28;20289;-59
2022/10/26 06:24:44;;;;;;;8.47;4.50;;;;;;;13.71;100.00;96883.91;5102585;28;20182;-60
2022/10/26 06:27:19;;;;;;;6.20;4.70;;;;;;;13.73;100.00;96895.22;5102238;28;20225;-60
2022/10/26 06:29:52;;;;;;;6.87;5.03;;;;;;;13.73;100.00;96905.84;5082423;28;20579;-60
2022/10/26 06:32:18;;;;;;;9.70;4.60;;;;;;;13.73;100.00;96933.25;5103395;28;20206;-59
2022/10/26 06:34:49;;;;;;;5.17;4.50;;;;;;;13.77;100.00;96944.41;5101963;28;20209;-62
2022/10/26 06:37:16;;;;;;;9.67;4.97;;;;;;;13.75;100.00;96931.28;5094259;28;20233;-60
2022/10/26 06:39:46;;;;;;;5.10;4.60;;;;;;;13.76;100.00;96930.28;5082198;28;20280;-60
2022/10/26 06:42:14;;;;;;;4.93;4.47;;;;;;;13.77;100.00;96934.63;5081112;28;20198;-59
2022/10/26 06:44:41;;;;;;;5.67;4.37;;;;;;;13.78;100.00;96924.84;5082002;28;20289;-60
2022/10/26 06:47:10;;;;;;;6.17;4.70;;;;;;;13.79;100.00;96922.00;5080740;28;20530;-60
2022/10/26 06:49:38;;;;;;;4.67;4.17;;;;;;;13.84;100.00;96930.34;5081558;28;20290;-60
2022/10/26 06:52:12;;;;;;;4.50;4.10;;;;;;;13.84;100.00;96930.34;5081851;28;20674;-59
2022/10/26 06:54:47;;;;;;;5.13;3.93;;;;;;;13.83;100.00;96927.84;5081361;28;20221;-59
2022/10/26 06:57:15;;;;;;;6.73;4.10;;;;;;;13.84;100.00;96942.81;5081347;28;20255;-59
2022/10/26 06:59:46;;;;;;;6.57;3.93;;;;;;;13.86;100.00;96944.31;5082727;28;20263;-59
2022/10/26 07:02:13;;;;;;;5.37;4.47;;;;;;;13.87;100.00;96948.66;5081126;28;20710;-60
2022/10/26 07:04:40;;;;;;;7.20;4.03;;;;;;;13.87;100.00;96943.34;5081472;28;20194;-60
2022/10/26 07:07:09;;;;;;;6.23;4.43;;;;;;;13.90;100.00;96947.50;5081320;28;20289;-59
2022/10/26 07:09:37;;;;;;;8.00;5.27;;;;;;;13.90;100.00;96945.69;5080763;28;20290;-59
2022/10/26 07:12:04;;;;;;;8.93;4.60;;;;;;;13.92;100.00;96946.34;5082165;28;20232;-60
2022/10/26 07:14:31;;;;;;;5.27;4.77;;;;;;;13.98;100.00;96952.03;5081642;28;20237;-60
2022/10/26 07:16:57;;;;;;;5.13;4.53;;;;;;;14.01;100.00;96949.06;5081597;28;20218;-59
2022/10/26 07:19:24;;;;;;;6.17;4.83;;;;;;;14.01;100.00;96960.53;5081612;28;20297;-60
2022/10/26 07:21:50;;;;;;;5.23;4.73;;;;;;;14.06;100.00;96974.22;5081216;28;20600;-60
2022/10/26 07:24:20;;;;;;;8.03;5.00;;;;;;;14.04;100.00;96970.84;5080979;28;20226;-60
2022/10/26 07:26:49;;;;;;;5.40;4.90;;;;;;;14.05;100.00;96977.84;5081131;28;20281;-59
2022/10/26 07:29:16;;;;;;;10.40;4.70;;;;;;;14.09;100.00;96968.56;5081705;28;20209;-59
2022/10/26 07:31:43;;;;;;;4.93;4.40;;;;;;;14.18;100.00;96985.41;5081421;28;20205;-59
2022/10/26 07:34:10;;;;;;;8.97;4.40;;;;;;;14.24;100.00;96990.09;5081161;28;20217;-60
2022/10/26 07:36:36;;;;;;;8.57;4.40;;;;;;;14.33;100.00;96991.81;5081518;28;20680;-60
2022/10/26 07:39:04;;;;;;;7.03;4.70;;;;;;;14.39;100.00;97004.50;5081277;28;20289;-60
2022/10/26 07:41:32;;;;;;;6.23;4.47;;;;;;;14.45;100.00;97014.53;5081414;28;20308;-59
2022/10/26 07:43:58;;;;;;;6.57;4.20;;;;;;;14.49;100.00;97021.19;5080481;28;20648;-59
2022/10/26 07:46:26;;;;;;;8.37;4.97;;;;;;;14.56;100.00;97016.91;5063179;28;20263;-59
2022/10/26 07:48:53;;;;;;;7.57;5.80;;;;;;;14.60;100.00;97018.25;5084757;28;20289;-59
2022/10/26 07:51:19;;;;;;;5.83;5.20;;;;;;;14.63;100.00;97020.59;5084473;28;20226;-60
2022/10/26 07:53:46;;;;;;;6.65;5.63;;;;;;;14.68;100.00;97020.13;5085307;28;20293;-60
2022/10/26 07:56:13;;;;;;;9.23;5.53;;;;;;;14.75;100.00;97018.50;5084926;28;20231;-59
2022/10/26 07:58:41;;;;;;;6.30;5.60;;;;;;;14.84;100.00;97018.38;5085143;28;20617;-60
2022/10/26 08:01:09;;;;;;;8.37;4.90;;;;;;;14.93;100.00;97029.91;5089361;28;20232;-61
2022/10/26 08:03:36;;;;;;;5.13;4.63;;;;;;;14.98;100.00;97027.59;5095276;28;20232;-60
2022/10/26 08:06:03;;;;;;;5.18;4.68;;;;;;;15.06;100.00;97018.78;5095816;28;20202;-60
2022/10/26 08:08:30;;;;;;;4.65;4.18;;;;;;;15.12;100.00;97026.16;5093144;28;20202;-60
2022/10/26 08:10:57;;;;;;;6.00;4.63;;;;;;;15.18;100.00;97039.66;5088195;28;20289;-59
2022/10/26 08:13:24;;;;;;;5.28;3.80;;;;;;;15.25;100.00;97037.16;5087746;28;20191;-60
2022/10/26 08:15:56;;;;;;;13.05;4.00;;;;;;;15.33;100.00;97030.03;5086692;28;20270;-59
2022/10/26 08:18:24;;;;;;;6.10;4.00;;;;;;;15.44;100.00;97034.22;5087403;28;20717;-61
2022/10/26 08:20:51;;;;;;;11.90;5.10;;;;;;;15.54;100.00;97034.94;5083783;28;20706;-60
2022/10/26 08:23:17;;;;;;;6.70;5.13;;;;;;;15.65;100.00;97045.28;5084407;28;20214;-59
2022/10/26 08:25:44;;;;;;;6.20;4.63;;;;;;;15.72;100.00;97042.78;5084261;28;20248;-59
2022/10/26 08:28:11;;;;;;;7.07;6.03;;;;;;;15.69;100.00;97043.97;5083650;28;20194;-61
2022/10/26 08:30:38;;;;;;;7.60;6.85;;;;;;;15.69;100.00;97043.13;5084038;28;20240;-59
2022/10/26 08:33:07;;;;;;;9.52;6.50;;;;;;;15.70;100.00;97034.09;5083972;28;20234;-60
2022/10/26 08:35:34;;;;;;;7.25;6.15;;;;;;;15.77;100.00;97040.44;5083844;28;20229;-60
2022/10/26 08:38:01;;;;;;;9.75;6.68;;;;;;;15.82;100.00;97046.97;5083594;28;20241;-59
2022/10/26 08:40:30;;;;;;;6.45;5.80;;;;;;;15.76;100.00;97044.97;5083445;28;20293;-60
2022/10/26 08:43:00;;;;;;;8.52;5.97;;;;;;;15.85;100.00;97038.63;5083974;28;20198;-60
2022/10/26 08:45:30;;;;;;;7.30;5.55;;;;;;;15.78;100.00;97032.31;5083922;28;20305;-60
2022/10/26 08:47:59;;;;;;;7.63;5.38;;;;;;;15.83;100.00;97039.81;5083989;28;20199;-59
2022/10/26 08:50:32;;;;;;;8.38;5.53;;;;;;;15.91;100.00;97037.97;5083221;28;20268;-61
2022/10/26 08:53:03;;;;;;;9.25;5.43;;;;;;;16.05;100.00;97039.13;5084718;28;21273;-61
2022/10/26 08:55:34;;;;;;;6.57;5.38;;;;;;;16.16;100.00;97046.78;5084140;28;20206;-61
2022/10/26 08:58:01;;;;;;;7.43;5.50;;;;;;;16.32;100.00;97044.13;5083653;28;20288;-60
2022/10/26 09:00:29;;;;;;;6.93;5.10;;;;;;;16.37;100.00;97043.59;5082507;28;20623;-59
2022/10/26 09:02:56;;;;;;;9.55;5.35;;;;;;;16.43;100.00;97042.94;5083952;28;20407;-60
2022/10/26 09:05:26;;;;;;;5.32;4.55;;;;;;;16.63;100.00;97048.75;5083754;28;20298;-61
2022/10/26 09:08:00;;;;;;;6.93;4.40;;;;;;;16.76;100.00;97049.88;5083668;28;20694;-60
2022/10/26 09:10:37;;;;;;;5.60;4.10;;;;;;;16.79;100.00;97046.88;5083507;28;20201;-61
2022/10/26 09:13:10;;;;;;;6.32;3.88;;;;;;;16.81;100.00;97047.53;5084394;28;20198;-61
2022/10/26 09:15:46;;;;;;;5.65;4.20;;;;;;;16.90;100.00;97045.66;5083744;28;20551;-60
2022/10/26 09:18:24;;;;;;;4.82;4.03;;;;;;;17.07;100.00;97057.16;5083493;28;20234;-59
2022/10/26 09:21:10;;;;;;;4.32;3.92;;;;;;;17.30;100.00;97052.69;5082819;28;20244;-60
2022/10/26 09:23:52;;;;;;;4.57;3.50;;;;;;;17.55;100.00;97051.53;5082829;28;20224;-61
2022/10/26 09:26:28;;;;;;;7.53;4.13;;;;;;;17.78;100.00;97049.75;5082484;28;20930;-60
2022/10/26 09:28:55;;;;;;;7.13;3.05;;;;;;;18.04;100.00;97045.88;5083539;28;20495;-60
2022/10/26 09:31:23;;;;;;;6.32;2.40;;;;;;;18.34;100.00;97055.66;5083329;28;20208;-60
2022/10/26 09:33:50;;;;;;;3.67;2.78;;;;;;;18.62;100.00;97054.09;5084623;28;20293;-60
2022/10/26 09:36:19;;;;;;;4.30;2.72;;;;;;;18.89;100.00;97060.66;5084564;28;20288;-60
2022/10/26 09:38:51;;;;;;;4.00;2.45;;;;;;;19.21;100.00;97056.75;5084979;28;20321;-60
2022/10/26 09:41:24;;;;;;;5.03;2.40;;;;;;;19.44;100.00;97057.50;5085340;28;20194;-61
2022/10/26 09:43:56;;;;;;;5.47;2.42;;;;;;;19.72;100.00;97065.66;5085840;28;20237;-61
2022/10/26 09:46:28;;;;;;;4.95;2.38;;;;;;;19.80;93.36;97069.03;5086531;28;20787;-61
2022/10/26 09:48:58;;;;;;;4.45;2.33;;;;;;;20.01;93.88;97067.41;5086327;28;20214;-60
2022/10/26 09:51:26;;;;;;;4.57;2.35;;;;;;;20.18;93.15;97060.75;5084514;28;20264;-60
2022/10/26 09:53:54;;;;;;;5.85;2.47;;;;;;;20.35;90.97;97062.19;5083630;28;20210;-60
2022/10/26 09:56:21;;;;;;;3.85;2.13;;;;;;;20.51;89.04;97061.88;5083934;28;20651;-60
2022/10/26 09:58:50;;;;;;;5.45;2.17;;;;;;;20.56;84.78;97069.38;5084939;28;20265;-60
2022/10/26 10:01:31;;;;;;;5.43;2.25;;;;;;;20.72;86.58;97067.25;5082432;28;20204;-60
2022/10/26 10:04:18;;;;;;;5.55;2.25;;;;;;;20.97;88.17;97072.16;5082450;28;20229;-61
2022/10/26 10:06:46;;;;;;;4.78;1.88;;;;;;;21.15;88.27;97075.19;5082051;28;20251;-60
2022/10/26 10:09:15;;;;;;;3.03;2.10;;;;;;;21.05;82.27;97080.06;5083565;28;20285;-61
2022/10/26 10:11:44;;;;;;;5.00;2.47;;;;;;;21.11;80.75;97082.00;5097859;28;20267;-60
2022/10/26 10:14:16;;;;;;;4.25;2.00;;;;;;;21.31;82.51;97075.69;5096459;28;20654;-60
2022/10/26 10:16:50;;;;;;;5.18;2.10;;;;;;;21.44;79.98;97082.97;5082130;28;20198;-60
2022/10/26 10:19:22;;;;;;;7.63;2.50;;;;;;;21.34;78.74;97093.28;5099668;28;20252;-61
2022/10/26 10:21:50;;;;;;;4.13;2.03;;;;;;;21.54;79.92;97091.50;5101172;28;20190;-60
2022/10/26 10:24:25;;;;;;;2.17;1.88;;;;;;;21.70;79.47;97091.19;5089404;28;20310;-60
2022/10/26 10:27:03;;;;;;;3.72;2.03;;;;;;;21.68;75.06;97095.13;5081534;28;20243;-60
2022/10/26 10:29:31;;;;;;;4.03;2.28;;;;;;;21.86;74.78;97089.97;5081518;28;20293;-60
2022/10/26 10:31:59;;;;;;;3.50;2.28;;;;;;;21.81;70.98;97101.38;5081870;28;20641;-60
2022/10/26 10:34:26;;;;;;;8.05;2.40;;;;;;;21.79;73.89;97102.59;5081908;28;20229;-60
2022/10/26 10:36:53;;;;;;;7.32;2.20;;;;;;;21.84;73.25;97100.97;5081875;28;20407;-60
2022/10/26 10:39:37;;;;;;;4.32;2.70;;;;;;;21.97;76.27;97105.56;5081586;28;20318;-61
2022/10/26 10:42:06;;;;;;;4.57;2.40;;;;;;;22.10;76.20;97107.50;5079457;28;20299;-61
2022/10/26 10:44:33;;;;;;;4.03;2.15;;;;;;;22.22;74.09;97112.06;5081542;28;20289;-60
2022/10/26 10:47:01;;;;;;;6.25;2.03;;;;;;;22.16;71.15;97109.34;5081584;28;20213;-60
2022/10/26 10:49:28;;;;;;;4.47;2.50;;;;;;;22.22;70.95;97113.91;5083071;28;20249;-60
2022/10/26 10:51:56;;;;;;;4.63;2.80;;;;;;;22.13;68.94;97107.06;5082324;28;20320;-60
2022/10/26 10:54:25;;;;;;;5.57;2.55;;;;;;;22.24;68.79;97114.56;5082412;28;20289;-60
2022/10/26 10:56:55;;;;;;;5.30;2.53;;;;;;;22.19;70.01;97100.88;5082825;28;20216;-61
2022/10/26 10:59:31;;;;;;;7.00;2.40;;;;;;;22.14;72.13;97114.94;5083815;28;20224;-60
2022/10/26 11:02:11;;;;;;;6.85;2.40;;;;;;;22.17;71.17;97108.34;5082074;28;20293;-59
2022/10/26 11:04:58;;;;;;;6.57;2.60;;;;;;;22.26;72.24;97112.47;5081803;28;20191;-61
2022/10/26 11:07:26;;;;;;;5.45;2.70;;;;;;;22.31;71.03;97105.47;5080715;28;20542;-60
2022/10/26 11:09:53;;;;;;;3.60;2.22;;;;;;;22.31;71.27;97113.53;5081170;28;20221;-61
2022/10/26 11:12:24;;;;;;;5.40;2.70;;;;;;;22.42;71.93;97106.72;5081364;28;20322;-60
2022/10/26 11:14:54;;;;;;;3.85;2.67;;;;;;;22.36;70.23;97110.22;5080774;28;20289;-61
2022/10/26 11:17:24;;;;;;;6.38;2.97;;;;;;;22.29;71.03;97106.69;5081513;28;20221;-60
2022/10/26 11:19:54;;;;;;;7.63;2.70;;;;;;;22.36;73.65;97106.69;5080861;28;20321;-60
2022/10/26 11:22:25;;;;;;;4.93;2.70;;;;;;;22.39;72.25;97100.91;5080742;28;20285;-60
2022/10/26 11:24:55;;;;;;;5.18;2.83;;;;;;;22.46;72.51;97102.56;5081377;28;20196;-60
2022/10/26 11:27:27;;;;;;;6.80;2.70;;;;;;;22.50;73.13;97103.81;5081370;28;20289;-60
2022/10/26 11:29:58;;;;;;;5.95;3.00;;;;;;;22.38;71.88;97110.03;5081359;28;20226;-60
2022/10/26 11:32:28;;;;;;;7.65;2.60;;;;;;;22.36;73.47;97106.69;5080702;28;20281;-61
2022/10/26 11:34:59;;;;;;;3.95;2.50;;;;;;;22.34;74.32;97112.28;5080709;28;21024;-62
2022/10/26 11:37:31;;;;;;;4.53;2.92;;;;;;;22.23;72.51;97107.50;5080773;28;20280;-61